sensor_id;sensor_type;location;lat;lon;timestamp;P1;P2;P0
61592;PMS5003;47485;51.378;-1.342;2023-04-19T00:02:10;36;34;
61592;PMS5003;47485;51.378;-1.342;2023-04-19T00:04:37;34;32;
61592;PMS5003;47485;51.378;-1.342;2023-04-19T00:07:03;33;31;
61592;PMS5003;47485;51.378;-1.342;2023-04-19T00:09:31;39;33;
61592;PMS5003;47485;51.378;-1.342;2023-04-19T00:11:57;36;32;
61592;PMS5003;47485;51.378;-1.342;2023-04-19T00:14:24;33;29;
61592;PMS5003;47485;51.378;-1.342;2023-04-19T00:16:51;35;34;
61592;PMS5003;47485;51.378;-1.342;2023-04-19T00:19:18;43;36;
61592;PMS5003;47485;51.378;-1.342;2023-04-19T00:21:45;43;39;
61592;PMS5003;47485;51.378;-1.342;2023-04-19T00:24:12;38;36;
61592;PMS5003;47485;51.378;-1.342;2023-04-19T00:26:39;40;34;
61592;PMS5003;47485;51.378;-1.342;2023-04-19T00:29:06;35;30;
61592;PMS5003;47485;51.378;-1.342;2023-04-19T00:31:33;34;32;
61592;PMS5003;47485;51.378;-1.342;2023-04-19T00:33:59;40;38;
61592;PMS5003;47485;51.378;-1.342;2023-04-19T00:36:27;41;36;
61592;PMS5003;47485;51.378;-1.342;2023-04-19T00:38:54;32;30;
61592;PMS5003;47485;51.378;-1.342;2023-04-19T00:41:21;39;37;
61592;PMS5003;47485;51.378;-1.342;2023-04-19T00:43:47;41;36;
61592;PMS5003;47485;51.378;-1.342;2023-04-19T00:46:14;38;37;
61592;PMS5003;47485;51.378;-1.342;2023-04-19T00:48:41;38;35;
61592;PMS5003;47485;51.378;-1.342;2023-04-19T00:51:08;40;39;
61592;PMS5003;47485;51.378;-1.342;2023-04-19T00:53:35;31;28;
61592;PMS5003;47485;51.378;-1.342;2023-04-19T00:56:03;39;32;
61592;PMS5003;47485;51.378;-1.342;2023-04-19T00:58:31;35;33;
61592;PMS5003;47485;51.378;-1.342;2023-04-19T01:00:58;37;34;
61592;PMS5003;47485;51.378;-1.342;2023-04-19T01:03:25;36;35;
61592;PMS5003;47485;51.378;-1.342;2023-04-19T01:05:53;40;37;
61592;PMS5003;47485;51.378;-1.342;2023-04-19T01:08:20;39;31;
61592;PMS5003;47485;51.378;-1.342;2023-04-19T01:10:47;38;34;
61592;PMS5003;47485;51.378;-1.342;2023-04-19T01:13:14;39;34;
61592;PMS5003;47485;51.378;-1.342;2023-04-19T01:15:41;42;37;
61592;PMS5003;47485;51.378;-1.342;2023-04-19T01:18:09;38;34;
61592;PMS5003;47485;51.378;-1.342;2023-04-19T01:20:36;35;32;
61592;PMS5003;47485;51.378;-1.342;2023-04-19T01:23:02;33;31;
61592;PMS5003;47485;51.378;-1.342;2023-04-19T01:25:29;38;35;
61592;PMS5003;47485;51.378;-1.342;2023-04-19T01:27:57;39;38;
61592;PMS5003;47485;51.378;-1.342;2023-04-19T01:30:24;37;35;
61592;PMS5003;47485;51.378;-1.342;2023-04-19T01:32:51;39;34;
61592;PMS5003;47485;51.378;-1.342;2023-04-19T01:35:19;51;48;
61592;PMS5003;47485;51.378;-1.342;2023-04-19T01:37:46;47;41;
61592;PMS5003;47485;51.378;-1.342;2023-04-19T01:40:13;44;39;
61592;PMS5003;47485;51.378;-1.342;2023-04-19T01:42:40;43;38;
61592;PMS5003;47485;51.378;-1.342;2023-04-19T01:45:07;39;33;
61592;PMS5003;47485;51.378;-1.342;2023-04-19T01:47:34;35;34;
61592;PMS5003;47485;51.378;-1.342;2023-04-19T01:50:01;36;35;
61592;PMS5003;47485;51.378;-1.342;2023-04-19T01:52:28;36;34;
61592;PMS5003;47485;51.378;-1.342;2023-04-19T01:54:55;42;37;
61592;PMS5003;47485;51.378;-1.342;2023-04-19T01:57:23;39;37;
61592;PMS5003;47485;51.378;-1.342;2023-04-19T01:59:49;41;37;
61592;PMS5003;47485;51.378;-1.342;2023-04-19T02:02:17;37;32;
61592;PMS5003;47485;51.378;-1.342;2023-04-19T02:04:44;41;37;
61592;PMS5003;47485;51.378;-1.342;2023-04-19T02:07:11;38;34;
61592;PMS5003;47485;51.378;-1.342;2023-04-19T02:09:38;45;41;
61592;PMS5003;47485;51.378;-1.342;2023-04-19T02:12:05;42;38;
61592;PMS5003;47485;51.378;-1.342;2023-04-19T02:14:32;35;32;
61592;PMS5003;47485;51.378;-1.342;2023-04-19T02:17:00;40;34;
61592;PMS5003;47485;51.378;-1.342;2023-04-19T02:19:27;37;34;
61592;PMS5003;47485;51.378;-1.342;2023-04-19T02:21:54;40;37;
61592;PMS5003;47485;51.378;-1.342;2023-04-19T02:24:20;32;31;
61592;PMS5003;47485;51.378;-1.342;2023-04-19T02:26:47;43;36;
61592;PMS5003;47485;51.378;-1.342;2023-04-19T02:29:14;42;34;
61592;PMS5003;47485;51.378;-1.342;2023-04-19T02:31:41;33;32;
61592;PMS5003;47485;51.378;-1.342;2023-04-19T02:34:08;40;36;
61592;PMS5003;47485;51.378;-1.342;2023-04-19T02:36:35;42;37;
61592;PMS5003;47485;51.378;-1.342;2023-04-19T02:39:01;47;39;
61592;PMS5003;47485;51.378;-1.342;2023-04-19T02:41:28;42;39;
61592;PMS5003;47485;51.378;-1.342;2023-04-19T02:43:55;38;37;
61592;PMS5003;47485;51.378;-1.342;2023-04-19T02:46:22;40;35;
61592;PMS5003;47485;51.378;-1.342;2023-04-19T02:48:49;44;39;
61592;PMS5003;47485;51.378;-1.342;2023-04-19T02:51:16;40;39;
61592;PMS5003;47485;51.378;-1.342;2023-04-19T02:53:43;33;30;
61592;PMS5003;47485;51.378;-1.342;2023-04-19T02:56:10;41;39;
61592;PMS5003;47485;51.378;-1.342;2023-04-19T02:58:37;37;32;
61592;PMS5003;47485;51.378;-1.342;2023-04-19T03:01:03;34;32;
61592;PMS5003;47485;51.378;-1.342;2023-04-19T03:03:30;39;33;
61592;PMS5003;47485;51.378;-1.342;2023-04-19T03:05:56;39;31;
61592;PMS5003;47485;51.378;-1.342;2023-04-19T03:08:23;38;37;
61592;PMS5003;47485;51.378;-1.342;2023-04-19T03:10:50;43;37;
61592;PMS5003;47485;51.378;-1.342;2023-04-19T03:13:17;36;33;
61592;PMS5003;47485;51.378;-1.342;2023-04-19T03:15:44;42;37;
61592;PMS5003;47485;51.378;-1.342;2023-04-19T03:18:11;43;38;
61592;PMS5003;47485;51.378;-1.342;2023-04-19T03:20:37;38;35;
61592;PMS5003;47485;51.378;-1.342;2023-04-19T03:23:04;43;39;
61592;PMS5003;47485;51.378;-1.342;2023-04-19T03:25:32;37;34;
61592;PMS5003;47485;51.378;-1.342;2023-04-19T03:27:58;38;34;
61592;PMS5003;47485;51.378;-1.342;2023-04-19T03:30:26;37;33;
61592;PMS5003;47485;51.378;-1.342;2023-04-19T03:32:54;35;34;
61592;PMS5003;47485;51.378;-1.342;2023-04-19T03:35:21;39;37;
61592;PMS5003;47485;51.378;-1.342;2023-04-19T03:37:47;42;36;
61592;PMS5003;47485;51.378;-1.342;2023-04-19T03:40:14;44;43;
61592;PMS5003;47485;51.378;-1.342;2023-04-19T03:42:41;43;37;
61592;PMS5003;47485;51.378;-1.342;2023-04-19T03:45:08;42;40;
61592;PMS5003;47485;51.378;-1.342;2023-04-19T03:47:35;44;39;
61592;PMS5003;47485;51.378;-1.342;2023-04-19T03:50:02;44;38;
61592;PMS5003;47485;51.378;-1.342;2023-04-19T03:52:29;46;39;
61592;PMS5003;47485;51.378;-1.342;2023-04-19T03:54:56;42;40;
61592;PMS5003;47485;51.378;-1.342;2023-04-19T03:57:23;42;39;
61592;PMS5003;47485;51.378;-1.342;2023-04-19T03:59:49;48;44;
61592;PMS5003;47485;51.378;-1.342;2023-04-19T04:02:16;46;42;
61592;PMS5003;47485;51.378;-1.342;2023-04-19T04:04:42;41;36;
61592;PMS5003;47485;51.378;-1.342;2023-04-19T04:07:09;40;39;
61592;PMS5003;47485;51.378;-1.342;2023-04-19T04:09:35;46;42;
61592;PMS5003;47485;51.378;-1.342;2023-04-19T04:12:02;38;37;
61592;PMS5003;47485;51.378;-1.342;2023-04-19T04:14:29;41;37;
61592;PMS5003;47485;51.378;-1.342;2023-04-19T04:16:56;49;45;
61592;PMS5003;47485;51.378;-1.342;2023-04-19T04:19:23;42;39;
61592;PMS5003;47485;51.378;-1.342;2023-04-19T04:21:49;48;42;
61592;PMS5003;47485;51.378;-1.342;2023-04-19T04:24:16;47;43;
61592;PMS5003;47485;51.378;-1.342;2023-04-19T04:26:43;38;37;
61592;PMS5003;47485;51.378;-1.342;2023-04-19T04:29:10;41;36;
61592;PMS5003;47485;51.378;-1.342;2023-04-19T04:31:37;44;42;
61592;PMS5003;47485;51.378;-1.342;2023-04-19T04:34:04;42;41;
61592;PMS5003;47485;51.378;-1.342;2023-04-19T04:36:30;44;38;
61592;PMS5003;47485;51.378;-1.342;2023-04-19T04:38:57;49;44;
61592;PMS5003;47485;51.378;-1.342;2023-04-19T04:41:24;53;46;
61592;PMS5003;47485;51.378;-1.342;2023-04-19T04:43:51;44;42;
61592;PMS5003;47485;51.378;-1.342;2023-04-19T04:46:18;51;45;
61592;PMS5003;47485;51.378;-1.342;2023-04-19T04:48:45;41;36;
61592;PMS5003;47485;51.378;-1.342;2023-04-19T04:51:12;39;37;
61592;PMS5003;47485;51.378;-1.342;2023-04-19T04:53:39;48;45;
61592;PMS5003;47485;51.378;-1.342;2023-04-19T04:56:05;41;41;
61592;PMS5003;47485;51.378;-1.342;2023-04-19T04:58:32;52;47;
61592;PMS5003;47485;51.378;-1.342;2023-04-19T05:00:59;52;44;
61592;PMS5003;47485;51.378;-1.342;2023-04-19T05:03:26;45;43;
61592;PMS5003;47485;51.378;-1.342;2023-04-19T05:05:54;47;45;
61592;PMS5003;47485;51.378;-1.342;2023-04-19T05:08:21;50;43;
61592;PMS5003;47485;51.378;-1.342;2023-04-19T05:10:48;53;49;
61592;PMS5003;47485;51.378;-1.342;2023-04-19T05:13:15;52;47;
61592;PMS5003;47485;51.378;-1.342;2023-04-19T05:15:42;51;43;
61592;PMS5003;47485;51.378;-1.342;2023-04-19T05:18:09;59;49;
61592;PMS5003;47485;51.378;-1.342;2023-04-19T05:20:36;57;50;
61592;PMS5003;47485;51.378;-1.342;2023-04-19T05:23:02;50;43;
61592;PMS5003;47485;51.378;-1.342;2023-04-19T05:25:29;51;42;
61592;PMS5003;47485;51.378;-1.342;2023-04-19T05:27:55;49;43;
61592;PMS5003;47485;51.378;-1.342;2023-04-19T05:30:22;54;48;
61592;PMS5003;47485;51.378;-1.342;2023-04-19T05:32:49;51;44;
61592;PMS5003;47485;51.378;-1.342;2023-04-19T05:35:16;46;43;
61592;PMS5003;47485;51.378;-1.342;2023-04-19T05:37:43;50;46;
61592;PMS5003;47485;51.378;-1.342;2023-04-19T05:40:10;57;49;
61592;PMS5003;47485;51.378;-1.342;2023-04-19T05:42:37;53;49;
61592;PMS5003;47485;51.378;-1.342;2023-04-19T05:45:05;53;49;
61592;PMS5003;47485;51.378;-1.342;2023-04-19T05:47:32;56;51;
61592;PMS5003;47485;51.378;-1.342;2023-04-19T05:49:59;53;49;
61592;PMS5003;47485;51.378;-1.342;2023-04-19T05:52:26;52;51;
61592;PMS5003;47485;51.378;-1.342;2023-04-19T05:54:53;54;51;
61592;PMS5003;47485;51.378;-1.342;2023-04-19T05:57:21;60;53;
61592;PMS5003;47485;51.378;-1.342;2023-04-19T05:59:47;56;50;
61592;PMS5003;47485;51.378;-1.342;2023-04-19T06:02:14;51;42;
61592;PMS5003;47485;51.378;-1.342;2023-04-19T06:04:42;56;55;
61592;PMS5003;47485;51.378;-1.342;2023-04-19T06:07:10;61;54;
61592;PMS5003;47485;51.378;-1.342;2023-04-19T06:09:38;58;48;
61592;PMS5003;47485;51.378;-1.342;2023-04-19T06:12:05;62;57;
61592;PMS5003;47485;51.378;-1.342;2023-04-19T06:14:32;58;50;
61592;PMS5003;47485;51.378;-1.342;2023-04-19T06:16:59;53;48;
61592;PMS5003;47485;51.378;-1.342;2023-04-19T06:19:25;56;51;
61592;PMS5003;47485;51.378;-1.342;2023-04-19T06:21:52;62;52;
61592;PMS5003;47485;51.378;-1.342;2023-04-19T06:24:20;56;50;
61592;PMS5003;47485;51.378;-1.342;2023-04-19T06:26:47;56;55;
61592;PMS5003;47485;51.378;-1.342;2023-04-19T06:29:13;60;55;
61592;PMS5003;47485;51.378;-1.342;2023-04-19T06:31:40;50;47;
61592;PMS5003;47485;51.378;-1.342;2023-04-19T06:34:07;63;60;
61592;PMS5003;47485;51.378;-1.342;2023-04-19T06:36:33;62;57;
61592;PMS5003;47485;51.378;-1.342;2023-04-19T06:39:00;64;57;
61592;PMS5003;47485;51.378;-1.342;2023-04-19T06:41:27;70;60;
61592;PMS5003;47485;51.378;-1.342;2023-04-19T06:43:59;60;52;
61592;PMS5003;47485;51.378;-1.342;2023-04-19T06:46:26;53;53;
61592;PMS5003;47485;51.378;-1.342;2023-04-19T06:48:54;63;58;
61592;PMS5003;47485;51.378;-1.342;2023-04-19T06:51:21;62;57;
61592;PMS5003;47485;51.378;-1.342;2023-04-19T06:53:48;64;55;
61592;PMS5003;47485;51.378;-1.342;2023-04-19T06:56:15;60;56;
61592;PMS5003;47485;51.378;-1.342;2023-04-19T06:58:42;60;54;
61592;PMS5003;47485;51.378;-1.342;2023-04-19T07:01:08;62;57;
61592;PMS5003;47485;51.378;-1.342;2023-04-19T07:03:36;62;55;
61592;PMS5003;47485;51.378;-1.342;2023-04-19T07:06:02;66;59;
61592;PMS5003;47485;51.378;-1.342;2023-04-19T07:08:29;59;54;
61592;PMS5003;47485;51.378;-1.342;2023-04-19T07:10:56;62;57;
61592;PMS5003;47485;51.378;-1.342;2023-04-19T07:13:23;64;57;
61592;PMS5003;47485;51.378;-1.342;2023-04-19T07:15:50;70;61;
61592;PMS5003;47485;51.378;-1.342;2023-04-19T07:18:16;62;57;
61592;PMS5003;47485;51.378;-1.342;2023-04-19T07:20:43;63;55;
61592;PMS5003;47485;51.378;-1.342;2023-04-19T07:23:10;59;54;
61592;PMS5003;47485;51.378;-1.342;2023-04-19T07:25:37;56;53;
61592;PMS5003;47485;51.378;-1.342;2023-04-19T07:28:03;60;52;
61592;PMS5003;47485;51.378;-1.342;2023-04-19T07:30:30;66;59;
61592;PMS5003;47485;51.378;-1.342;2023-04-19T07:32:58;66;57;
61592;PMS5003;47485;51.378;-1.342;2023-04-19T07:35:24;63;58;
61592;PMS5003;47485;51.378;-1.342;2023-04-19T07:37:51;61;57;
61592;PMS5003;47485;51.378;-1.342;2023-04-19T07:40:19;67;59;
61592;PMS5003;47485;51.378;-1.342;2023-04-19T07:42:46;60;53;
61592;PMS5003;47485;51.378;-1.342;2023-04-19T07:45:13;63;56;
61592;PMS5003;47485;51.378;-1.342;2023-04-19T07:47:40;57;55;
61592;PMS5003;47485;51.378;-1.342;2023-04-19T07:50:07;58;53;
61592;PMS5003;47485;51.378;-1.342;2023-04-19T07:52:35;60;57;
61592;PMS5003;47485;51.378;-1.342;2023-04-19T07:55:02;53;48;
61592;PMS5003;47485;51.378;-1.342;2023-04-19T07:57:30;64;56;
61592;PMS5003;47485;51.378;-1.342;2023-04-19T07:59:57;62;60;
61592;PMS5003;47485;51.378;-1.342;2023-04-19T08:02:25;67;60;
61592;PMS5003;47485;51.378;-1.342;2023-04-19T08:04:52;56;54;
61592;PMS5003;47485;51.378;-1.342;2023-04-19T08:07:19;50;48;
61592;PMS5003;47485;51.378;-1.342;2023-04-19T08:09:46;60;56;
61592;PMS5003;47485;51.378;-1.342;2023-04-19T08:12:12;53;49;
61592;PMS5003;47485;51.378;-1.342;2023-04-19T08:14:39;54;51;
61592;PMS5003;47485;51.378;-1.342;2023-04-19T08:17:06;51;49;
61592;PMS5003;47485;51.378;-1.342;2023-04-19T08:19:32;60;55;
61592;PMS5003;47485;51.378;-1.342;2023-04-19T08:22:00;58;49;
61592;PMS5003;47485;51.378;-1.342;2023-04-19T08:24:27;59;56;
61592;PMS5003;47485;51.378;-1.342;2023-04-19T08:26:54;59;56;
61592;PMS5003;47485;51.378;-1.342;2023-04-19T08:29:21;61;54;
61592;PMS5003;47485;51.378;-1.342;2023-04-19T08:31:48;57;55;
61592;PMS5003;47485;51.378;-1.342;2023-04-19T08:34:15;60;53;
61592;PMS5003;47485;51.378;-1.342;2023-04-19T08:36:42;62;57;
61592;PMS5003;47485;51.378;-1.342;2023-04-19T08:39:09;60;57;
61592;PMS5003;47485;51.378;-1.342;2023-04-19T08:41:35;60;53;
61592;PMS5003;47485;51.378;-1.342;2023-04-19T08:44:01;60;56;
61592;PMS5003;47485;51.378;-1.342;2023-04-19T08:46:31;60;56;
61592;PMS5003;47485;51.378;-1.342;2023-04-19T08:48:58;55;49;
61592;PMS5003;47485;51.378;-1.342;2023-04-19T08:51:26;56;55;
61592;PMS5003;47485;51.378;-1.342;2023-04-19T08:53:55;58;52;
61592;PMS5003;47485;51.378;-1.342;2023-04-19T08:56:23;52;49;
61592;PMS5003;47485;51.378;-1.342;2023-04-19T08:58:50;59;56;
61592;PMS5003;47485;51.378;-1.342;2023-04-19T09:01:17;62;53;
61592;PMS5003;47485;51.378;-1.342;2023-04-19T09:03:44;54;53;
61592;PMS5003;47485;51.378;-1.342;2023-04-19T09:06:11;65;57;
61592;PMS5003;47485;51.378;-1.342;2023-04-19T09:08:38;57;54;
61592;PMS5003;47485;51.378;-1.342;2023-04-19T09:11:05;58;52;
61592;PMS5003;47485;51.378;-1.342;2023-04-19T09:13:33;59;53;
61592;PMS5003;47485;51.378;-1.342;2023-04-19T09:16:00;55;54;
61592;PMS5003;47485;51.378;-1.342;2023-04-19T09:18:27;58;54;
61592;PMS5003;47485;51.378;-1.342;2023-04-19T09:20:54;52;49;
61592;PMS5003;47485;51.378;-1.342;2023-04-19T09:23:22;56;53;
61592;PMS5003;47485;51.378;-1.342;2023-04-19T09:25:51;62;54;
61592;PMS5003;47485;51.378;-1.342;2023-04-19T09:28:21;61;58;
61592;PMS5003;47485;51.378;-1.342;2023-04-19T09:30:47;63;58;
61592;PMS5003;47485;51.378;-1.342;2023-04-19T09:33:19;56;53;
61592;PMS5003;47485;51.378;-1.342;2023-04-19T09:35:57;60;50;
61592;PMS5003;47485;51.378;-1.342;2023-04-19T09:38:25;60;52;
61592;PMS5003;47485;51.378;-1.342;2023-04-19T09:41:04;52;50;
61592;PMS5003;47485;51.378;-1.342;2023-04-19T09:43:32;50;48;
61592;PMS5003;47485;51.378;-1.342;2023-04-19T09:45:59;51;49;
61592;PMS5003;47485;51.378;-1.342;2023-04-19T09:48:26;52;48;
61592;PMS5003;47485;51.378;-1.342;2023-04-19T09:50:54;47;46;
61592;PMS5003;47485;51.378;-1.342;2023-04-19T09:53:22;51;47;
61592;PMS5003;47485;51.378;-1.342;2023-04-19T09:55:50;51;47;
61592;PMS5003;47485;51.378;-1.342;2023-04-19T09:58:18;43;42;
61592;PMS5003;47485;51.378;-1.342;2023-04-19T10:00:45;54;49;
61592;PMS5003;47485;51.378;-1.342;2023-04-19T10:03:13;47;43;
61592;PMS5003;47485;51.378;-1.342;2023-04-19T10:05:42;49;45;
61592;PMS5003;47485;51.378;-1.342;2023-04-19T10:08:10;45;43;
61592;PMS5003;47485;51.378;-1.342;2023-04-19T10:10:38;46;42;
61592;PMS5003;47485;51.378;-1.342;2023-04-19T10:13:06;42;40;
61592;PMS5003;47485;51.378;-1.342;2023-04-19T10:15:34;41;34;
61592;PMS5003;47485;51.378;-1.342;2023-04-19T10:18:02;44;42;
61592;PMS5003;47485;51.378;-1.342;2023-04-19T10:20:31;46;41;
61592;PMS5003;47485;51.378;-1.342;2023-04-19T10:23:05;46;43;
61592;PMS5003;47485;51.378;-1.342;2023-04-19T10:25:35;50;45;
61592;PMS5003;47485;51.378;-1.342;2023-04-19T10:28:03;47;43;
61592;PMS5003;47485;51.378;-1.342;2023-04-19T10:30:30;47;43;
61592;PMS5003;47485;51.378;-1.342;2023-04-19T10:32:58;41;38;
61592;PMS5003;47485;51.378;-1.342;2023-04-19T10:35:26;44;41;
61592;PMS5003;47485;51.378;-1.342;2023-04-19T10:38:02;51;45;
61592;PMS5003;47485;51.378;-1.342;2023-04-19T10:41:04;42;39;
61592;PMS5003;47485;51.378;-1.342;2023-04-19T10:43:31;51;49;
61592;PMS5003;47485;51.378;-1.342;2023-04-19T10:45:59;43;43;
61592;PMS5003;47485;51.378;-1.342;2023-04-19T10:48:31;49;44;
61592;PMS5003;47485;51.378;-1.342;2023-04-19T10:50:59;54;50;
61592;PMS5003;47485;51.378;-1.342;2023-04-19T10:54:01;52;46;
61592;PMS5003;47485;51.378;-1.342;2023-04-19T10:57:01;54;49;
61592;PMS5003;47485;51.378;-1.342;2023-04-19T10:59:29;54;49;
61592;PMS5003;47485;51.378;-1.342;2023-04-19T11:01:57;50;47;
61592;PMS5003;47485;51.378;-1.342;2023-04-19T11:04:58;49;47;
61592;PMS5003;47485;51.378;-1.342;2023-04-19T11:07:26;49;46;
61592;PMS5003;47485;51.378;-1.342;2023-04-19T11:09:53;46;46;
61592;PMS5003;47485;51.378;-1.342;2023-04-19T11:12:21;43;41;
61592;PMS5003;47485;51.378;-1.342;2023-04-19T11:14:50;37;37;
61592;PMS5003;47485;51.378;-1.342;2023-04-19T11:17:18;45;43;
61592;PMS5003;47485;51.378;-1.342;2023-04-19T11:19:52;55;49;
61592;PMS5003;47485;51.378;-1.342;2023-04-19T11:22:24;47;41;
61592;PMS5003;47485;51.378;-1.342;2023-04-19T11:24:55;49;43;
61592;PMS5003;47485;51.378;-1.342;2023-04-19T11:27:22;42;42;
61592;PMS5003;47485;51.378;-1.342;2023-04-19T11:29:49;45;39;
61592;PMS5003;47485;51.378;-1.342;2023-04-19T11:32:17;53;48;
61592;PMS5003;47485;51.378;-1.342;2023-04-19T11:34:46;45;39;
61592;PMS5003;47485;51.378;-1.342;2023-04-19T11:37:13;40;37;
61592;PMS5003;47485;51.378;-1.342;2023-04-19T11:39:44;42;41;
61592;PMS5003;47485;51.378;-1.342;2023-04-19T11:42:19;32;31;
61592;PMS5003;47485;51.378;-1.342;2023-04-19T11:44:49;40;38;
61592;PMS5003;47485;51.378;-1.342;2023-04-19T11:47:16;39;35;
61592;PMS5003;47485;51.378;-1.342;2023-04-19T11:49:43;35;33;
61592;PMS5003;47485;51.378;-1.342;2023-04-19T11:52:10;41;35;
61592;PMS5003;47485;51.378;-1.342;2023-04-19T11:54:37;41;37;
61592;PMS5003;47485;51.378;-1.342;2023-04-19T11:57:05;36;34;
61592;PMS5003;47485;51.378;-1.342;2023-04-19T11:59:33;38;37;
61592;PMS5003;47485;51.378;-1.342;2023-04-19T12:02:09;39;35;
61592;PMS5003;47485;51.378;-1.342;2023-04-19T12:04:38;37;36;
61592;PMS5003;47485;51.378;-1.342;2023-04-19T12:07:05;38;32;
61592;PMS5003;47485;51.378;-1.342;2023-04-19T12:09:33;43;38;
61592;PMS5003;47485;51.378;-1.342;2023-04-19T12:12:01;38;34;
61592;PMS5003;47485;51.378;-1.342;2023-04-19T12:14:28;34;33;
61592;PMS5003;47485;51.378;-1.342;2023-04-19T12:17:12;35;33;
61592;PMS5003;47485;51.378;-1.342;2023-04-19T12:19:41;42;37;
61592;PMS5003;47485;51.378;-1.342;2023-04-19T12:22:10;34;32;
61592;PMS5003;47485;51.378;-1.342;2023-04-19T12:24:38;34;33;
61592;PMS5003;47485;51.378;-1.342;2023-04-19T12:27:05;34;32;
61592;PMS5003;47485;51.378;-1.342;2023-04-19T12:29:33;38;34;
61592;PMS5003;47485;51.378;-1.342;2023-04-19T12:31:59;43;40;
61592;PMS5003;47485;51.378;-1.342;2023-04-19T12:34:26;34;34;
61592;PMS5003;47485;51.378;-1.342;2023-04-19T12:36:53;36;32;
61592;PMS5003;47485;51.378;-1.342;2023-04-19T12:39:21;39;35;
61592;PMS5003;47485;51.378;-1.342;2023-04-19T12:41:48;40;37;
61592;PMS5003;47485;51.378;-1.342;2023-04-19T12:44:15;39;37;
61592;PMS5003;47485;51.378;-1.342;2023-04-19T12:46:42;33;30;
61592;PMS5003;47485;51.378;-1.342;2023-04-19T12:49:09;42;36;
61592;PMS5003;47485;51.378;-1.342;2023-04-19T12:51:35;30;29;
61592;PMS5003;47485;51.378;-1.342;2023-04-19T12:54:03;33;27;
61592;PMS5003;47485;51.378;-1.342;2023-04-19T12:56:31;31;29;
61592;PMS5003;47485;51.378;-1.342;2023-04-19T12:58:58;32;31;
61592;PMS5003;47485;51.378;-1.342;2023-04-19T13:01:25;31;26;
61592;PMS5003;47485;51.378;-1.342;2023-04-19T13:03:52;30;28;
61592;PMS5003;47485;51.378;-1.342;2023-04-19T13:06:19;35;32;
61592;PMS5003;47485;51.378;-1.342;2023-04-19T13:08:45;31;27;
61592;PMS5003;47485;51.378;-1.342;2023-04-19T13:11:12;31;28;
61592;PMS5003;47485;51.378;-1.342;2023-04-19T13:13:40;24;24;
61592;PMS5003;47485;51.378;-1.342;2023-04-19T13:16:06;24;22;
61592;PMS5003;47485;51.378;-1.342;2023-04-19T13:18:33;35;31;
61592;PMS5003;47485;51.378;-1.342;2023-04-19T13:21:00;26;24;
61592;PMS5003;47485;51.378;-1.342;2023-04-19T13:23:27;26;26;
61592;PMS5003;47485;51.378;-1.342;2023-04-19T13:25:54;29;26;
61592;PMS5003;47485;51.378;-1.342;2023-04-19T13:28:21;31;29;
61592;PMS5003;47485;51.378;-1.342;2023-04-19T13:30:47;25;22;
61592;PMS5003;47485;51.378;-1.342;2023-04-19T13:33:14;23;23;
61592;PMS5003;47485;51.378;-1.342;2023-04-19T13:35:41;22;20;
61592;PMS5003;47485;51.378;-1.342;2023-04-19T13:38:08;25;22;
61592;PMS5003;47485;51.378;-1.342;2023-04-19T13:40:35;20;20;
61592;PMS5003;47485;51.378;-1.342;2023-04-19T13:43:02;19;17;
61592;PMS5003;47485;51.378;-1.342;2023-04-19T13:45:29;22;20;
61592;PMS5003;47485;51.378;-1.342;2023-04-19T13:47:56;21;21;
61592;PMS5003;47485;51.378;-1.342;2023-04-19T13:50:24;21;20;
61592;PMS5003;47485;51.378;-1.342;2023-04-19T13:52:51;20;17;
61592;PMS5003;47485;51.378;-1.342;2023-04-19T13:55:18;17;17;
61592;PMS5003;47485;51.378;-1.342;2023-04-19T13:57:44;20;20;
61592;PMS5003;47485;51.378;-1.342;2023-04-19T14:00:12;17;15;
61592;PMS5003;47485;51.378;-1.342;2023-04-19T14:02:39;19;18;
61592;PMS5003;47485;51.378;-1.342;2023-04-19T14:05:06;17;17;
61592;PMS5003;47485;51.378;-1.342;2023-04-19T14:07:33;19;19;
61592;PMS5003;47485;51.378;-1.342;2023-04-19T14:10:00;16;15;
61592;PMS5003;47485;51.378;-1.342;2023-04-19T14:12:27;18;16;
61592;PMS5003;47485;51.378;-1.342;2023-04-19T14:14:54;21;18;
61592;PMS5003;47485;51.378;-1.342;2023-04-19T14:17:21;14;14;
61592;PMS5003;47485;51.378;-1.342;2023-04-19T14:19:48;14;14;
61592;PMS5003;47485;51.378;-1.342;2023-04-19T14:22:15;17;16;
61592;PMS5003;47485;51.378;-1.342;2023-04-19T14:24:42;17;15;
61592;PMS5003;47485;51.378;-1.342;2023-04-19T14:27:09;14;13;
61592;PMS5003;47485;51.378;-1.342;2023-04-19T14:29:35;14;14;
61592;PMS5003;47485;51.378;-1.342;2023-04-19T14:32:02;16;15;
61592;PMS5003;47485;51.378;-1.342;2023-04-19T14:34:29;13;13;
61592;PMS5003;47485;51.378;-1.342;2023-04-19T14:36:56;17;15;
61592;PMS5003;47485;51.378;-1.342;2023-04-19T14:39:23;14;14;
61592;PMS5003;47485;51.378;-1.342;2023-04-19T14:41:49;18;16;
61592;PMS5003;47485;51.378;-1.342;2023-04-19T14:44:16;18;16;
61592;PMS5003;47485;51.378;-1.342;2023-04-19T14:46:43;16;12;
61592;PMS5003;47485;51.378;-1.342;2023-04-19T14:49:09;19;17;
61592;PMS5003;47485;51.378;-1.342;2023-04-19T14:51:36;16;16;
61592;PMS5003;47485;51.378;-1.342;2023-04-19T14:54:02;18;15;
61592;PMS5003;47485;51.378;-1.342;2023-04-19T14:56:29;14;13;
61592;PMS5003;47485;51.378;-1.342;2023-04-19T14:58:55;21;18;
61592;PMS5003;47485;51.378;-1.342;2023-04-19T15:01:22;14;14;
61592;PMS5003;47485;51.378;-1.342;2023-04-19T15:03:49;15;15;
61592;PMS5003;47485;51.378;-1.342;2023-04-19T15:06:16;14;14;
61592;PMS5003;47485;51.378;-1.342;2023-04-19T15:08:43;15;13;
61592;PMS5003;47485;51.378;-1.342;2023-04-19T15:11:10;13;13;
61592;PMS5003;47485;51.378;-1.342;2023-04-19T15:13:36;14;14;
61592;PMS5003;47485;51.378;-1.342;2023-04-19T15:16:03;16;15;
61592;PMS5003;47485;51.378;-1.342;2023-04-19T15:18:30;15;14;
61592;PMS5003;47485;51.378;-1.342;2023-04-19T15:20:57;20;18;
61592;PMS5003;47485;51.378;-1.342;2023-04-19T15:23:24;16;14;
61592;PMS5003;47485;51.378;-1.342;2023-04-19T15:25:51;16;13;
61592;PMS5003;47485;51.378;-1.342;2023-04-19T15:28:18;13;12;
61592;PMS5003;47485;51.378;-1.342;2023-04-19T15:30:46;11;11;
61592;PMS5003;47485;51.378;-1.342;2023-04-19T15:33:18;14;14;
61592;PMS5003;47485;51.378;-1.342;2023-04-19T15:35:45;15;14;
61592;PMS5003;47485;51.378;-1.342;2023-04-19T15:38:16;15;14;
61592;PMS5003;47485;51.378;-1.342;2023-04-19T15:40:44;16;14;
61592;PMS5003;47485;51.378;-1.342;2023-04-19T15:43:11;16;14;
61592;PMS5003;47485;51.378;-1.342;2023-04-19T15:45:38;16;14;
61592;PMS5003;47485;51.378;-1.342;2023-04-19T15:48:05;16;16;
61592;PMS5003;47485;51.378;-1.342;2023-04-19T15:50:32;11;11;
61592;PMS5003;47485;51.378;-1.342;2023-04-19T15:53:01;15;14;
61592;PMS5003;47485;51.378;-1.342;2023-04-19T15:55:28;20;18;
61592;PMS5003;47485;51.378;-1.342;2023-04-19T15:57:55;19;17;
61592;PMS5003;47485;51.378;-1.342;2023-04-19T16:00:22;15;13;
61592;PMS5003;47485;51.378;-1.342;2023-04-19T16:02:49;16;15;
61592;PMS5003;47485;51.378;-1.342;2023-04-19T16:05:17;16;14;